createdAt,value
2022-11-24T00:01:32.592Z,97913.75
2022-11-24T00:04:05.845Z,97918.97
2022-11-24T00:06:35.947Z,97924.03
2022-11-24T00:09:05.679Z,97920.50
2022-11-24T00:11:35.865Z,97926.53
2022-11-24T00:14:04.792Z,97923.00
2022-11-24T00:16:35.611Z,97931.34
2022-11-24T00:19:06.786Z,97931.13
2022-11-24T00:21:34.024Z,97931.84
2022-11-24T00:24:01.548Z,97937.59
2022-11-24T00:26:34.946Z,97933.84
2022-11-24T00:29:05.905Z,97933.84
2022-11-24T00:31:37.232Z,97936.56
2022-11-24T00:34:07.987Z,97946.31
2022-11-24T00:36:36.780Z,97940.66
2022-11-24T00:39:14.411Z,97949.63
2022-11-24T00:41:42.997Z,97958.91
2022-11-24T00:44:10.311Z,97958.81
2022-11-24T00:46:37.717Z,97964.50
2022-11-24T00:49:05.623Z,97967.06
2022-11-24T00:51:33.507Z,97980.94
2022-11-24T00:54:02.040Z,97978.22
2022-11-24T00:56:31.203Z,97982.28
2022-11-24T00:58:59.027Z,97985.72
2022-11-24T01:01:29.439Z,97985.94
2022-11-24T01:03:57.650Z,97988.09
2022-11-24T01:09:15.727Z,97993.00
2022-11-24T01:12:08.626Z,97988.22
2022-11-24T01:17:19.461Z,97988.22
2022-11-24T01:28:04.968Z,97981.44
2022-11-24T01:30:38.287Z,98005.56
2022-11-24T01:33:09.035Z,98000.63
2022-11-24T01:38:35.237Z,97993.81
2022-11-24T01:43:53.950Z,98004.41
2022-11-24T01:49:49.907Z,98008.19
2022-11-24T01:52:30.930Z,98017.97
2022-11-24T01:58:23.168Z,98017.50
2022-11-24T02:00:53.673Z,98028.84
2022-11-24T02:03:33.333Z,98011.53
2022-11-24T02:06:07.647Z,98022.72
2022-11-24T02:09:00.104Z,98026.00
2022-11-24T02:11:34.022Z,98024.59
2022-11-24T02:14:01.781Z,98027.66
2022-11-24T02:16:32.363Z,98027.53
2022-11-24T02:18:59.818Z,98023.44
2022-11-24T02:21:31.170Z,98029.91
2022-11-24T02:24:24.798Z,98022.38
2022-11-24T02:26:58.633Z,98026.38
2022-11-24T02:29:26.250Z,98013.31
2022-11-24T02:32:02.408Z,98015.41
2022-11-24T02:34:30.097Z,98013.31
2022-11-24T02:36:57.673Z,98016.00
2022-11-24T02:39:26.231Z,98008.38
2022-11-24T02:42:03.165Z,98024.97
2022-11-24T02:44:38.178Z,98022.75
2022-11-24T02:47:14.581Z,98023.03
2022-11-24T02:49:46.630Z,98026.97
2022-11-24T02:52:14.477Z,98025.75
2022-11-24T02:54:44.418Z,98010.47
2022-11-24T03:00:01.707Z,98027.06
2022-11-24T03:05:12.903Z,98035.06
2022-11-24T03:07:40.388Z,98038.97
2022-11-24T03:10:14.238Z,98039.78
2022-11-24T03:12:46.203Z,98043.31
2022-11-24T03:15:15.015Z,98044.03
2022-11-24T03:17:42.918Z,98040.75
2022-11-24T03:20:11.138Z,98028.47
2022-11-24T03:27:44.778Z,98051.22
2022-11-24T03:32:44.473Z,98035.78
2022-11-24T03:35:12.400Z,98030.00
2022-11-24T03:37:54.710Z,98053.22
2022-11-24T03:40:24.661Z,98046.03
2022-11-24T03:42:52.268Z,98052.28
2022-11-24T03:47:57.562Z,98058.06
2022-11-24T03:50:30.623Z,98063.34
2022-11-24T03:52:58.384Z,98059.31
2022-11-24T04:05:52.155Z,98068.63
2022-11-24T04:08:20.227Z,98071.34
2022-11-24T04:10:52.528Z,98086.66
2022-11-24T04:13:33.115Z,98074.03
2022-11-24T04:16:07.226Z,98079.47
2022-11-24T04:18:34.740Z,98097.38
2022-11-24T04:23:52.953Z,98095.72
2022-11-24T04:29:06.583Z,98106.66
2022-11-24T04:31:34.045Z,98101.94
2022-11-24T04:34:03.942Z,98109.69
2022-11-24T04:36:31.592Z,98106.03
2022-11-24T04:39:25.565Z,98101.16
2022-11-24T04:41:57.286Z,98125.66
2022-11-24T04:44:31.364Z,98124.47
2022-11-24T04:46:58.952Z,98126.34
2022-11-24T04:49:26.532Z,98135.53
2022-11-24T04:51:53.836Z,98131.06
2022-11-24T04:57:07.900Z,98138.22
2022-11-24T05:05:06.753Z,98148.38
2022-11-24T05:07:35.057Z,98149.19
2022-11-24T05:21:00.072Z,98159.56
2022-11-24T05:26:03.110Z,98158.38
2022-11-24T05:42:33.547Z,98165.31
2022-11-24T05:45:01.038Z,98165.56
2022-11-24T05:47:28.682Z,98178.63
2022-11-24T05:53:08.781Z,98178.63
2022-11-24T05:55:46.805Z,98180.75
2022-11-24T05:58:24.934Z,98180.50
2022-11-24T06:00:52.396Z,98178.84
2022-11-24T06:03:19.791Z,98184.72
2022-11-24T06:05:48.130Z,98193.66
2022-11-24T06:25:04.082Z,98222.59
2022-11-24T06:30:16.774Z,98228.91
2022-11-24T06:37:46.122Z,98238.91
2022-11-24T06:40:13.787Z,98255.31
2022-11-24T06:42:41.392Z,98252.22
2022-11-24T06:45:09.859Z,98257.44
2022-11-24T06:47:37.871Z,98261.75
2022-11-24T06:50:06.047Z,98261.75
2022-11-24T06:52:33.408Z,98253.28
2022-11-24T06:55:00.807Z,98271.56
2022-11-24T07:00:26.091Z,98288.84
2022-11-24T07:05:29.875Z,98303.00
2022-11-24T15:11:01.897Z,98551.09
2022-11-24T15:13:38.373Z,98540.13
2022-11-24T15:21:45.824Z,98548.97
2022-11-24T15:29:42.232Z,98550.97
2022-11-24T15:32:16.095Z,98555.09
2022-11-24T15:34:47.171Z,98566.09
2022-11-24T15:37:14.930Z,98550.72
2022-11-24T15:39:42.112Z,98565.75
2022-11-24T15:58:57.588Z,98581.28
2022-11-24T18:43:31.986Z,98711.75
2022-11-24T18:46:00.087Z,98704.28
2022-11-24T18:48:27.359Z,98709.03
2022-11-24T18:50:57.035Z,98705.09
2022-11-24T18:53:27.208Z,98705.72
2022-11-24T18:56:04.909Z,98708.44
2022-11-24T18:58:34.238Z,98706.69
2022-11-24T19:01:16.329Z,98715.91
2022-11-24T19:03:50.058Z,98719.81
2022-11-24T19:06:24.462Z,98715.44
2022-11-24T19:08:54.959Z,98730.06
2022-11-24T19:11:28.361Z,98718.38
2022-11-24T19:13:56.881Z,98710.06
2022-11-24T19:16:31.055Z,98724.41
2022-11-24T19:19:00.390Z,98714.81
2022-11-24T19:21:30.484Z,98721.72
2022-11-24T19:24:04.241Z,98720.88
2022-11-24T19:26:33.310Z,98725.47
2022-11-24T19:29:00.645Z,98729.47
2022-11-24T19:31:28.044Z,98728.78
2022-11-24T19:33:58.512Z,98735.50
2022-11-24T19:36:26.804Z,98742.97
2022-11-24T19:38:58.415Z,98734.09
2022-11-24T19:41:29.681Z,98736.34
2022-11-24T19:43:58.518Z,98739.63
2022-11-24T19:46:29.823Z,98750.06
2022-11-24T19:49:00.967Z,98740.09
2022-11-24T19:51:34.579Z,98751.31
2022-11-24T19:54:18.711Z,98750.75
2022-11-24T20:02:13.773Z,98758.44
2022-11-24T20:07:29.375Z,98756.34
2022-11-24T20:10:07.926Z,98770.88
2022-11-24T20:12:35.446Z,98765.28
2022-11-24T20:15:02.784Z,98774.63
2022-11-24T20:17:33.011Z,98768.00
2022-11-24T20:20:00.326Z,98767.63
2022-11-24T20:22:27.562Z,98777.22
2022-11-24T20:24:54.789Z,98777.66
2022-11-24T20:27:21.979Z,98785.38
2022-11-24T20:29:49.156Z,98790.81
2022-11-24T20:32:19.683Z,98796.00
2022-11-24T20:34:47.478Z,98790.56
2022-11-24T20:37:15.362Z,98793.88
2022-11-24T20:39:43.575Z,98798.47
2022-11-24T20:42:11.176Z,98805.34
2022-11-24T20:44:38.542Z,98799.53
2022-11-24T20:47:07.210Z,98799.78
2022-11-24T20:49:34.481Z,98799.53
2022-11-24T20:52:02.209Z,98795.41
2022-11-24T20:54:29.703Z,98792.44
2022-11-24T20:56:57.172Z,98805.59
2022-11-24T20:59:25.991Z,98801.00
2022-11-24T21:02:01.683Z,98803.47
2022-11-24T21:04:29.545Z,98810.94
2022-11-24T21:20:10.952Z,98813.44
2022-11-24T21:22:40.833Z,98828.81
2022-11-24T21:25:09.020Z,98815.31
2022-11-24T21:27:36.938Z,98830.09
2022-11-24T21:30:07.394Z,98823.25
2022-11-24T21:32:34.732Z,98833.66
2022-11-24T21:35:02.016Z,98843.47
2022-11-24T21:37:29.295Z,98840.75
2022-11-24T21:39:56.402Z,98848.75
2022-11-24T21:42:23.591Z,98838.94
2022-11-24T21:44:50.768Z,98848.28
2022-11-24T21:47:18.001Z,98856.44
2022-11-24T21:49:45.134Z,98857.84
2022-11-24T21:52:12.300Z,98858.31
2022-11-24T21:54:39.408Z,98863.53
2022-11-24T21:57:06.558Z,98868.13
2022-11-24T21:59:33.678Z,98873.34
2022-11-24T22:02:00.957Z,98857.47
2022-11-24T22:04:28.189Z,98866.84
2022-11-24T22:06:55.460Z,98862.47
2022-11-24T22:09:22.656Z,98873.72
2022-11-24T22:11:49.912Z,98872.91
2022-11-24T22:14:17.064Z,98867.09
2022-11-24T22:16:44.335Z,98881.25
2022-11-24T22:19:11.594Z,98888.34
2022-11-24T22:21:38.834Z,98885.47
2022-11-24T22:24:06.417Z,98885.94
2022-11-24T22:26:33.617Z,98890.91
2022-11-24T22:29:00.762Z,98900.56
2022-11-24T22:31:31.281Z,98911.44
2022-11-24T22:34:00.198Z,98919.34
2022-11-24T22:36:30.685Z,98920.41
2022-11-24T22:39:03.260Z,98925.38
2022-11-24T22:41:33.534Z,98917.69
2022-11-24T22:44:00.963Z,98925.63
2022-11-24T22:46:30.935Z,98929.59
2022-11-24T22:49:02.344Z,98932.31
2022-11-24T22:51:33.699Z,98929.59
2022-11-24T22:54:04.017Z,98926.69
2022-11-24T22:56:32.561Z,98941.09
2022-11-24T22:59:04.597Z,98930.88
2022-11-24T23:01:36.093Z,98935.66
2022-11-24T23:04:04.085Z,98937.53
2022-11-24T23:06:33.246Z,98939.22
2022-11-24T23:09:02.042Z,98937.53
2022-11-24T23:11:37.710Z,98944.03
2022-11-24T23:14:08.217Z,98939.22
2022-11-24T23:16:35.520Z,98940.72
2022-11-24T23:19:02.953Z,98942.13
2022-11-24T23:21:33.425Z,98944.03
2022-11-24T23:24:03.451Z,98941.09
2022-11-24T23:26:39.943Z,98941.94
2022-11-24T23:29:08.068Z,98939.03
2022-11-24T23:31:35.651Z,98941.75
2022-11-24T23:34:04.844Z,98947.56
2022-11-24T23:36:33.502Z,98954.06
2022-11-24T23:39:12.442Z,98948.03
2022-11-24T23:41:39.970Z,98953.66
2022-11-24T23:44:07.839Z,98955.53
2022-11-24T23:46:35.072Z,98941.00
2022-11-24T23:49:02.182Z,98946.19
2022-11-24T23:51:32.611Z,98953.66
2022-11-24T23:56:45.549Z,98945.72
2022-11-24T23:59:12.649Z,98954.97
